Time;durP1;ratioP1;P1;durP2;ratioP2;P2;SDS_P1;SDS_P2;PMS_P1;PMS_P2;Temp;Humidity;BMP_temperature;BMP_pressure;BME280_temperature;BME280_humidity;BME280_pressure;Samples;Min_cycle;Max_cycle;Signal;HPM_P1;HPM_P2
2022/06/15 00:00:34;;;;;;;18.83;8.73;;;14.50;99.90;;;;;;5053292;28;20029;-63
2022/06/15 00:03:00;;;;;;;21.33;9.80;;;14.50;99.90;;;;;;5052601;28;20043;-64
2022/06/15 00:05:27;;;;;;;23.55;10.18;;;14.40;99.90;;;;;;5050606;28;20025;-64
2022/06/15 00:07:53;;;;;;;22.17;9.77;;;14.40;99.90;;;;;;5052299;28;20107;-63
2022/06/15 00:10:19;;;;;;;24.27;10.93;;;14.40;99.90;;;;;;5053881;28;20145;-63
2022/06/15 00:12:45;;;;;;;23.63;10.75;;;14.40;99.90;;;;;;5054970;28;20427;-64
2022/06/15 00:15:11;;;;;;;23.77;11.02;;;14.40;99.90;;;;;;5053815;28;20107;-64
2022/06/15 00:17:36;;;;;;;22.85;11.07;;;14.30;99.90;;;;;;5047768;28;20022;-63
2022/06/15 00:20:03;;;;;;;23.95;11.95;;;14.30;99.90;;;;;;5035412;28;20025;-68
2022/06/15 00:22:29;;;;;;;24.38;11.13;;;14.30;99.90;;;;;;5044096;28;20048;-68
2022/06/15 00:24:54;;;;;;;22.27;11.18;;;14.30;99.90;;;;;;5054690;28;20021;-64
2022/06/15 00:27:20;;;;;;;24.35;10.50;;;14.30;99.90;;;;;;5054218;28;20083;-63
2022/06/15 00:29:45;;;;;;;20.83;11.45;;;14.30;99.90;;;;;;5054605;28;20370;-63
2022/06/15 00:32:11;;;;;;;22.65;11.23;;;14.30;99.90;;;;;;5065679;28;20060;-64
2022/06/15 00:34:37;;;;;;;23.40;11.00;;;14.30;99.90;;;;;;5046061;28;20072;-63
2022/06/15 00:37:05;;;;;;;26.10;11.13;;;14.20;99.90;;;;;;5049526;28;20021;-63
2022/06/15 00:39:32;;;;;;;22.80;12.20;;;14.20;99.90;;;;;;5054493;28;20036;-66
2022/06/15 00:41:58;;;;;;;21.15;11.57;;;14.20;99.90;;;;;;5053020;28;20425;-63
2022/06/15 00:44:24;;;;;;;24.40;11.40;;;14.20;99.90;;;;;;5054390;28;20112;-63
2022/06/15 00:46:51;;;;;;;22.08;11.32;;;14.20;99.90;;;;;;5053086;28;20041;-62
2022/06/15 00:49:17;;;;;;;21.90;11.40;;;14.20;99.90;;;;;;5054420;28;20021;-63
2022/06/15 00:51:45;;;;;;;26.40;11.18;;;14.20;99.90;;;;;;5053482;28;20032;-63
2022/06/15 00:54:11;;;;;;;22.17;10.20;;;14.20;99.90;;;;;;5053917;28;20439;-62
2022/06/15 00:56:38;;;;;;;27.00;11.27;;;14.20;99.90;;;;;;5064631;28;20028;-66
2022/06/15 00:59:10;;;;;;;24.23;11.35;;;14.10;99.90;;;;;;5049403;28;20033;-63
2022/06/15 01:01:36;;;;;;;22.83;10.77;;;14.10;99.90;;;;;;5053467;28;20021;-63
2022/06/15 01:04:03;;;;;;;24.88;10.60;;;14.10;99.90;;;;;;5054060;28;20033;-64
2022/06/15 01:06:41;;;;;;;23.05;11.48;;;14.10;99.90;;;;;;5052610;28;20055;-65
2022/06/15 01:09:19;;;;;;;26.92;10.88;;;14.00;99.90;;;;;;5042276;28;20072;-63
2022/06/15 01:11:55;;;;;;;21.73;11.10;;;14.00;99.90;;;;;;5034033;28;20017;-64
2022/06/15 01:14:48;;;;;;;23.13;10.68;;;14.00;99.90;;;;;;5034305;28;20100;-67
2022/06/15 01:17:29;;;;;;;23.05;11.40;;;14.00;99.90;;;;;;5037289;28;20060;-68
2022/06/15 01:20:38;;;;;;;23.83;10.77;;;14.00;99.90;;;;;;5047346;28;20021;-63
2022/06/15 01:23:28;;;;;;;24.13;10.50;;;14.00;99.90;;;;;;5052023;28;20028;-63
2022/06/15 01:26:12;;;;;;;22.60;10.85;;;14.00;99.90;;;;;;5043433;28;20112;-63
2022/06/15 01:28:46;;;;;;;20.88;10.73;;;13.90;99.90;;;;;;5053457;28;20024;-64
2022/06/15 01:31:35;;;;;;;25.10;11.70;;;13.90;99.90;;;;;;5047637;28;20092;-66
2022/06/15 01:34:32;;;;;;;24.83;12.25;;;13.90;99.90;;;;;;5042188;28;20033;-65
2022/06/15 01:37:08;;;;;;;25.77;11.98;;;13.90;99.90;;;;;;5048131;28;20068;-64
2022/06/15 01:39:48;;;;;;;23.27;11.57;;;13.80;99.90;;;;;;5042264;28;20021;-63
2022/06/15 01:42:29;;;;;;;24.67;11.48;;;13.80;99.90;;;;;;5048565;28;20034;-62
2022/06/15 01:44:59;;;;;;;26.02;11.70;;;13.80;99.90;;;;;;5034129;28;20470;-64
2022/06/15 01:47:27;;;;;;;22.92;11.40;;;13.80;99.90;;;;;;5035131;28;20029;-64
2022/06/15 01:50:15;;;;;;;22.65;10.68;;;13.80;99.90;;;;;;5035770;28;20130;-67
2022/06/15 01:52:49;;;;;;;28.00;11.40;;;13.80;99.90;;;;;;5032803;28;20033;-65
2022/06/15 01:55:22;;;;;;;23.23;11.30;;;13.70;99.90;;;;;;5038872;28;20052;-66
2022/06/15 01:57:51;;;;;;;25.90;12.13;;;13.70;99.90;;;;;;5048966;28;20648;-68
2022/06/15 02:00:18;;;;;;;23.23;10.95;;;13.70;99.90;;;;;;5037644;28;20025;-62
2022/06/15 02:03:20;;;;;;;23.73;12.20;;;13.70;99.90;;;;;;5050883;28;20035;-65
2022/06/15 02:05:57;;;;;;;26.48;11.38;;;13.70;99.90;;;;;;5048785;28;20147;-64
2022/06/15 02:08:46;;;;;;;27.73;12.13;;;13.70;99.90;;;;;;5051777;28;20036;-65
2022/06/15 02:11:33;;;;;;;25.90;12.00;;;13.60;99.90;;;;;;5052392;28;20017;-66
2022/06/15 02:14:08;;;;;;;25.98;13.68;;;13.70;99.90;;;;;;5052434;28;20029;-63
2022/06/15 02:17:05;;;;;;;26.65;12.77;;;13.60;99.90;;;;;;5052789;28;20517;-64
2022/06/15 02:19:34;;;;;;;27.35;13.63;;;13.70;99.90;;;;;;5026597;28;20045;-62
2022/06/15 02:22:09;;;;;;;25.30;12.45;;;13.60;99.90;;;;;;5033041;28;20025;-65
2022/06/15 02:24:36;;;;;;;26.95;13.73;;;13.70;99.90;;;;;;5050945;28;20497;-65
2022/06/15 02:27:05;;;;;;;28.02;12.73;;;13.70;99.90;;;;;;5052330;28;20455;-64
2022/06/15 02:29:34;;;;;;;26.02;13.02;;;13.70;99.90;;;;;;5042299;28;20021;-66
2022/06/15 02:32:00;;;;;;;23.38;11.82;;;13.70;99.90;;;;;;5046821;28;20033;-64
2022/06/15 02:34:27;;;;;;;25.08;12.55;;;13.70;99.90;;;;;;5052284;28;20029;-63
2022/06/15 02:36:54;;;;;;;22.13;11.02;;;13.70;99.90;;;;;;5052009;28;20075;-63
2022/06/15 02:39:20;;;;;;;22.85;11.30;;;13.70;99.90;;;;;;5052661;28;20083;-63
2022/06/15 02:41:45;;;;;;;21.50;10.27;;;13.70;99.90;;;;;;5051987;28;20025;-65
2022/06/15 02:44:16;;;;;;;20.00;10.32;;;13.60;99.90;;;;;;5052511;28;20036;-67
2022/06/15 02:46:46;;;;;;;20.50;9.45;;;13.60;99.90;;;;;;5051995;28;20044;-63
2022/06/15 02:49:12;;;;;;;22.67;9.13;;;13.50;99.90;;;;;;5052714;28;20036;-63
2022/06/15 02:51:44;;;;;;;23.15;9.95;;;13.40;99.90;;;;;;5048510;28;20024;-63
2022/06/15 02:54:21;;;;;;;22.30;10.27;;;13.40;99.90;;;;;;5032438;28;20030;-62
2022/06/15 02:56:47;;;;;;;19.80;9.52;;;13.40;99.90;;;;;;5065492;28;20029;-65
2022/06/15 02:59:13;;;;;;;23.50;10.02;;;13.30;99.90;;;;;;5051047;28;20454;-64
2022/06/15 03:01:39;;;;;;;19.88;9.80;;;13.30;99.90;;;;;;5052430;28;20025;-65
2022/06/15 03:04:05;;;;;;;20.88;10.05;;;13.30;99.90;;;;;;5051986;28;20074;-66
2022/06/15 03:06:30;;;;;;;24.85;9.95;;;13.20;99.90;;;;;;5048903;28;20738;-64
2022/06/15 03:08:57;;;;;;;20.58;9.60;;;13.20;99.90;;;;;;5032806;28;20024;-66
2022/06/15 03:11:24;;;;;;;23.27;9.98;;;13.20;99.90;;;;;;5045125;28;20031;-63
2022/06/15 03:13:51;;;;;;;21.92;10.52;;;13.20;99.90;;;;;;5052297;28;20025;-66
2022/06/15 03:16:17;;;;;;;22.27;9.02;;;13.20;99.90;;;;;;5052014;28;20063;-63
2022/06/15 03:18:43;;;;;;;22.30;10.10;;;13.20;99.90;;;;;;5051540;28;20021;-65
2022/06/15 03:21:08;;;;;;;20.00;9.90;;;13.10;99.90;;;;;;5051290;28;20408;-63
2022/06/15 03:23:34;;;;;;;22.10;10.23;;;13.10;99.90;;;;;;5051317;28;20032;-63
2022/06/15 03:26:02;;;;;;;23.02;10.85;;;13.10;99.90;;;;;;5051587;28;20032;-62
2022/06/15 03:28:28;;;;;;;21.92;10.35;;;13.10;99.90;;;;;;5051244;28;20405;-62
2022/06/15 03:30:54;;;;;;;22.00;10.85;;;13.10;99.90;;;;;;5051954;28;20040;-63
2022/06/15 03:33:20;;;;;;;19.10;10.52;;;13.10;99.90;;;;;;5049136;28;20052;-63
2022/06/15 03:35:47;;;;;;;21.83;9.80;;;13.10;99.90;;;;;;5036587;28;20021;-63
2022/06/15 03:38:13;;;;;;;23.55;10.93;;;13.10;99.90;;;;;;5051540;28;20033;-62
2022/06/15 03:40:44;;;;;;;20.02;10.27;;;13.10;99.90;;;;;;5051404;28;20028;-63
2022/06/15 03:43:10;;;;;;;25.30;11.43;;;13.10;99.90;;;;;;5052140;28;20151;-64
2022/06/15 03:45:37;;;;;;;19.20;10.00;;;13.10;99.90;;;;;;5051493;28;20104;-63
2022/06/15 03:48:04;;;;;;;22.27;11.07;;;13.10;99.90;;;;;;5051714;28;20037;-63
2022/06/15 03:50:32;;;;;;;23.15;11.57;;;13.10;99.90;;;;;;5048921;28;20025;-66
2022/06/15 03:52:59;;;;;;;26.30;11.95;;;13.10;99.90;;;;;;5051054;28;20029;-67
2022/06/15 03:55:28;;;;;;;23.55;11.60;;;13.20;99.90;;;;;;5050840;28;20033;-65
2022/06/15 03:57:54;;;;;;;22.10;11.10;;;13.20;99.90;;;;;;5051552;28;20027;-64
2022/06/15 04:00:22;;;;;;;21.08;10.32;;;13.20;99.90;;;;;;5051487;28;20104;-63
2022/06/15 04:02:47;;;;;;;20.27;10.05;;;13.20;99.90;;;;;;5050707;28;20040;-67
2022/06/15 04:05:20;;;;;;;22.77;10.63;;;13.20;99.90;;;;;;5051139;28;20021;-65
2022/06/15 04:10:29;;;;;;;22.40;10.68;;;13.20;99.90;;;;;;5051234;28;20139;-62
2022/06/15 04:12:55;;;;;;;21.63;10.30;;;13.20;99.90;;;;;;5050883;28;20367;-66
2022/06/15 04:15:20;;;;;;;25.33;11.00;;;13.30;99.90;;;;;;5050218;28;20021;-63
2022/06/15 04:17:46;;;;;;;23.33;10.85;;;13.30;99.90;;;;;;5051293;28;20051;-62
2022/06/15 04:20:33;;;;;;;20.58;9.82;;;13.30;99.90;;;;;;5050415;28;20415;-62
2022/06/15 04:23:03;;;;;;;23.38;9.90;;;13.40;99.90;;;;;;5050509;28;20026;-63
2022/06/15 04:25:30;;;;;;;22.27;9.60;;;13.40;99.90;;;;;;5050765;28;20025;-62
2022/06/15 04:27:56;;;;;;;20.58;9.48;;;13.50;99.90;;;;;;5050263;28;20139;-63
2022/06/15 04:30:22;;;;;;;22.02;11.45;;;13.60;99.90;;;;;;5049943;28;20041;-66
2022/06/15 04:32:48;;;;;;;19.38;9.77;;;13.60;99.90;;;;;;5048625;28;20033;-65
2022/06/15 04:35:14;;;;;;;20.45;10.23;;;13.70;99.90;;;;;;5041786;28;20102;-65
2022/06/15 04:37:39;;;;;;;21.58;10.48;;;13.80;99.90;;;;;;5053920;28;20083;-66
2022/06/15 04:40:06;;;;;;;22.27;11.27;;;13.80;99.90;;;;;;5053736;28;20028;-66
2022/06/15 04:42:32;;;;;;;20.55;10.00;;;13.90;99.90;;;;;;5054184;28;20024;-64
2022/06/15 04:44:58;;;;;;;18.38;9.25;;;14.00;99.90;;;;;;5054284;28;20415;-63
2022/06/15 04:47:23;;;;;;;19.38;9.18;;;14.10;99.90;;;;;;5054070;28;20457;-63
2022/06/15 04:49:49;;;;;;;18.25;8.55;;;14.20;99.90;;;;;;5053963;28;20032;-62
2022/06/15 04:52:15;;;;;;;17.35;8.57;;;14.30;99.90;;;;;;5052303;28;20021;-63
2022/06/15 04:54:40;;;;;;;20.45;8.88;;;14.40;99.90;;;;;;5053987;28;20470;-64
2022/06/15 04:57:06;;;;;;;18.73;9.23;;;14.50;99.90;;;;;;5053313;28;20028;-63
2022/06/15 04:59:32;;;;;;;17.83;9.73;;;14.60;99.90;;;;;;5053708;28;20035;-64
2022/06/15 05:01:58;;;;;;;20.65;9.20;;;14.70;99.90;;;;;;5052839;28;20037;-65
2022/06/15 05:04:25;;;;;;;16.05;8.65;;;14.90;99.90;;;;;;5053215;28;20040;-64
2022/06/15 05:06:51;;;;;;;16.73;8.52;;;15.00;99.90;;;;;;5053397;28;20048;-64
2022/06/15 05:09:17;;;;;;;16.30;7.65;;;15.20;99.90;;;;;;5054257;28;20029;-64
2022/06/15 05:11:43;;;;;;;19.25;9.50;;;15.30;99.90;;;;;;5054050;28;20033;-64
2022/06/15 05:14:08;;;;;;;17.13;8.52;;;15.50;99.90;;;;;;5053553;28;20061;-64
2022/06/15 05:16:34;;;;;;;20.83;9.30;;;15.70;99.90;;;;;;5054131;28;20441;-65
2022/06/15 05:19:00;;;;;;;15.88;8.60;;;15.90;99.90;;;;;;5053440;28;20021;-64
2022/06/15 05:21:27;;;;;;;19.08;9.15;;;16.10;99.90;;;;;;5053641;28;20020;-62
2022/06/15 05:23:53;;;;;;;15.82;7.55;;;16.40;99.90;;;;;;5053083;28;20028;-63
2022/06/15 05:26:18;;;;;;;14.27;7.20;;;16.70;99.90;;;;;;5053379;28;20128;-63
2022/06/15 05:28:45;;;;;;;15.40;7.50;;;17.20;99.90;;;;;;5053937;28;20410;-64
2022/06/15 05:31:16;;;;;;;15.27;6.45;;;17.80;99.90;;;;;;5052772;28;20508;-62
2022/06/15 05:33:42;;;;;;;11.63;6.28;;;18.50;99.90;;;;;;5045255;28;20028;-63
2022/06/15 05:36:12;;;;;;;11.68;5.90;;;19.30;99.90;;;;;;5053615;28;20098;-64
2022/06/15 05:38:37;;;;;;;14.95;6.07;;;20.00;99.90;;;;;;5051665;28;20053;-63
2022/06/15 05:41:04;;;;;;;9.98;4.68;;;20.70;99.90;;;;;;5053037;28;20406;-64
2022/06/15 05:43:31;;;;;;;10.10;4.97;;;21.50;99.90;;;;;;5053503;28;20021;-62
2022/06/15 05:45:56;;;;;;;10.40;4.45;;;22.10;99.90;;;;;;5053330;28;20447;-63
2022/06/15 05:48:22;;;;;;;8.85;4.60;;;22.60;99.90;;;;;;5052980;28;20033;-64
2022/06/15 05:50:48;;;;;;;12.00;4.78;;;22.90;99.90;;;;;;5040499;28;20017;-63
2022/06/15 05:53:13;;;;;;;13.25;4.88;;;23.40;99.90;;;;;;5033408;28;20029;-63
2022/06/15 05:55:39;;;;;;;14.77;5.53;;;24.00;99.90;;;;;;5049789;28;20025;-65
2022/06/15 05:58:05;;;;;;;13.93;5.90;;;24.70;98.70;;;;;;5052745;28;20370;-65
2022/06/15 06:00:31;;;;;;;8.25;4.20;;;25.20;97.60;;;;;;5051417;28;20455;-63
2022/06/15 06:02:57;;;;;;;11.68;4.55;;;25.70;96.40;;;;;;5052878;28;20027;-63
2022/06/15 06:05:23;;;;;;;8.25;4.50;;;25.80;95.00;;;;;;5052522;28;20028;-63
2022/06/15 06:07:49;;;;;;;11.50;4.43;;;26.00;95.00;;;;;;5053244;28;20170;-67
2022/06/15 06:10:15;;;;;;;10.07;4.43;;;26.30;94.50;;;;;;5052118;28;20025;-66
2022/06/15 06:12:41;;;;;;;11.70;5.03;;;26.90;93.70;;;;;;5052738;28;20351;-63
2022/06/15 06:15:07;;;;;;;9.40;4.38;;;27.30;93.20;;;;;;5052670;28;20021;-65
2022/06/15 06:17:33;;;;;;;11.10;4.90;;;27.60;92.30;;;;;;5053010;28;20033;-65
2022/06/15 06:19:58;;;;;;;10.02;4.75;;;27.80;91.90;;;;;;5052779;28;20020;-66
2022/06/15 06:22:24;;;;;;;10.00;4.65;;;28.20;91.00;;;;;;5052834;28;20031;-67
2022/06/15 06:24:49;;;;;;;11.50;4.28;;;28.40;90.60;;;;;;5052411;28;20067;-64
2022/06/15 06:27:15;;;;;;;9.20;4.80;;;28.60;90.10;;;;;;5052509;28;20041;-64
2022/06/15 06:29:41;;;;;;;10.10;4.63;;;28.90;89.40;;;;;;5052634;28;20021;-63
2022/06/15 06:32:12;;;;;;;8.63;4.90;;;29.30;88.10;;;;;;5052413;28;20045;-63
2022/06/15 06:34:37;;;;;;;8.73;4.57;;;29.60;86.90;;;;;;5052195;28;20037;-63
2022/06/15 06:37:05;;;;;;;14.10;5.03;;;30.00;85.80;;;;;;5051882;28;20105;-64
2022/06/15 06:39:31;;;;;;;8.20;4.28;;;30.30;84.40;;;;;;5052848;28;20048;-67
2022/06/15 06:41:59;;;;;;;10.27;4.68;;;30.60;83.80;;;;;;5052087;28;20044;-64
2022/06/15 06:44:25;;;;;;;11.35;4.65;;;30.90;82.40;;;;;;5053050;28;20044;-65
2022/06/15 06:46:52;;;;;;;11.25;4.60;;;31.00;80.80;;;;;;5052307;28;20021;-64
2022/06/15 06:49:19;;;;;;;12.32;4.57;;;30.60;81.00;;;;;;5052602;28;20025;-67
2022/06/15 06:51:46;;;;;;;11.43;4.93;;;30.50;80.70;;;;;;5040136;28;20033;-64
2022/06/15 06:54:14;;;;;;;12.27;4.80;;;30.10;80.50;;;;;;5040213;28;20096;-64
2022/06/15 06:56:40;;;;;;;13.32;4.93;;;30.00;80.10;;;;;;5052211;28;20112;-63
2022/06/15 06:59:09;;;;;;;9.68;4.05;;;30.10;80.00;;;;;;5051450;28;20135;-65
2022/06/15 07:01:37;;;;;;;10.85;4.47;;;30.30;79.40;;;;;;5049998;28;20025;-64
2022/06/15 07:04:02;;;;;;;9.82;4.25;;;30.20;79.10;;;;;;5051904;28;20021;-66
2022/06/15 07:06:28;;;;;;;10.10;4.28;;;30.40;78.50;;;;;;5047044;28;20044;-63
2022/06/15 07:08:53;;;;;;;8.73;4.07;;;30.50;77.50;;;;;;5034599;28;20021;-63
2022/06/15 07:11:19;;;;;;;12.38;4.47;;;30.60;77.30;;;;;;5052061;28;20033;-65
2022/06/15 07:13:45;;;;;;;9.02;3.95;;;30.80;76.70;;;;;;5051678;28;20021;-63
2022/06/15 07:16:14;;;;;;;11.93;4.00;;;31.00;75.80;;;;;;5051258;28;20020;-66
2022/06/15 07:18:39;;;;;;;10.95;4.38;;;31.30;75.00;;;;;;5051618;28;20029;-65
2022/06/15 07:21:08;;;;;;;9.25;3.83;;;31.20;74.70;;;;;;5050532;28;20025;-64
2022/06/15 07:23:34;;;;;;;8.98;3.55;;;30.90;75.00;;;;;;5034388;28;20104;-64
2022/06/15 07:26:05;;;;;;;11.35;3.95;;;30.60;75.20;;;;;;5037801;28;20433;-64
2022/06/15 07:28:31;;;;;;;9.82;3.80;;;30.40;75.80;;;;;;5050782;28;20514;-63
2022/06/15 07:30:57;;;;;;;9.00;3.42;;;30.30;76.00;;;;;;5049437;28;20068;-64
2022/06/15 07:33:22;;;;;;;7.38;3.67;;;30.60;75.70;;;;;;5051973;28;20151;-67
2022/06/15 07:35:48;;;;;;;8.23;3.35;;;30.80;74.70;;;;;;5051624;28;20029;-66
2022/06/15 07:38:13;;;;;;;8.07;3.10;;;31.10;73.80;;;;;;5043589;28;20043;-63
2022/06/15 07:40:39;;;;;;;8.73;3.40;;;31.30;73.60;;;;;;5031892;28;20022;-64
2022/06/15 07:43:05;;;;;;;10.10;3.10;;;31.40;72.70;;;;;;5032723;28;20355;-63
2022/06/15 07:45:30;;;;;;;7.47;3.00;;;31.30;72.70;;;;;;5071348;28;20370;-65
2022/06/15 07:50:41;;;;;;;9.80;3.00;;;31.10;72.10;;;;;;5072201;28;20028;-63
2022/06/15 07:53:10;;;;;;;11.05;3.10;;;30.90;71.30;;;;;;5067818;28;20017;-65
2022/06/15 07:55:39;;;;;;;8.20;2.90;;;30.50;72.30;;;;;;5032742;28;20057;-64
2022/06/15 07:58:06;;;;;;;7.70;2.80;;;30.40;71.60;;;;;;5031923;28;20044;-64
2022/06/15 08:00:33;;;;;;;7.55;2.55;;;29.80;72.10;;;;;;5032241;28;20026;-62
2022/06/15 08:02:59;;;;;;;9.50;2.80;;;29.30;72.90;;;;;;5032291;28;20029;-64
2022/06/15 08:05:26;;;;;;;8.82;2.95;;;28.60;73.80;;;;;;5032113;28;20028;-65
2022/06/15 08:07:52;;;;;;;6.22;2.63;;;28.40;74.20;;;;;;5032105;28;20072;-64
2022/06/15 08:10:21;;;;;;;7.22;2.80;;;28.30;73.80;;;;;;5041284;28;20029;-64
2022/06/15 08:12:49;;;;;;;5.82;2.70;;;28.30;73.60;;;;;;5055616;28;20470;-63
2022/06/15 08:15:14;;;;;;;7.53;2.28;;;28.30;74.30;;;;;;5054867;28;20025;-64
2022/06/15 08:17:45;;;;;;;7.45;2.05;;;28.40;72.90;;;;;;5055412;28;20140;-63
2022/06/15 08:20:16;;;;;;;8.50;2.67;;;28.80;71.00;;;;;;5055332;28;20454;-65
2022/06/15 08:22:45;;;;;;;6.00;2.03;;;29.30;69.20;;;;;;5055825;28;20029;-64
2022/06/15 08:25:15;;;;;;;5.72;1.83;;;29.70;69.50;;;;;;5042835;28;20827;-65
2022/06/15 08:27:41;;;;;;;5.07;2.08;;;30.30;67.00;;;;;;5052465;28;20033;-66
2022/06/15 08:30:10;;;;;;;9.23;2.40;;;31.00;66.40;;;;;;5053466;28;20096;-65
2022/06/15 08:32:36;;;;;;;7.85;2.25;;;31.70;65.60;;;;;;5052191;28;20936;-67
2022/06/15 08:35:03;;;;;;;11.18;2.50;;;32.30;64.70;;;;;;5059446;28;20025;-63
2022/06/15 08:37:29;;;;;;;8.98;2.75;;;33.00;64.20;;;;;;5058689;28;20027;-66
2022/06/15 08:39:54;;;;;;;8.95;2.22;;;33.70;63.60;;;;;;5053803;28;20429;-64
2022/06/15 08:42:35;;;;;;;5.65;1.67;;;34.30;61.30;;;;;;5054711;28;20047;-64
2022/06/15 08:45:33;;;;;;;5.53;1.90;;;34.90;59.60;;;;;;5054561;28;20032;-63
2022/06/15 08:48:26;;;;;;;5.97;1.95;;;35.20;58.50;;;;;;5041659;28;20045;-64
2022/06/15 08:51:07;;;;;;;4.25;1.70;;;35.60;56.60;;;;;;5073970;28;20021;-66
2022/06/15 08:53:51;;;;;;;4.85;2.13;;;35.90;56.30;;;;;;5065205;28;20045;-64
2022/06/15 08:56:29;;;;;;;7.40;1.80;;;36.30;55.70;;;;;;5054510;28;20060;-64
2022/06/15 08:58:54;;;;;;;8.68;2.22;;;36.60;54.80;;;;;;5053498;28;20454;-67
2022/06/15 09:01:34;;;;;;;6.20;2.00;;;37.00;54.50;;;;;;5053964;28;20020;-64
2022/06/15 09:04:24;;;;;;;6.47;2.17;;;37.10;53.50;;;;;;5054606;28;20065;-64
2022/06/15 09:07:31;;;;;;;3.63;1.90;;;37.00;53.30;;;;;;5062873;28;20508;-65
2022/06/15 09:10:31;;;;;;;9.23;2.10;;;36.80;53.40;;;;;;5060726;28;20028;-68
2022/06/15 09:13:16;;;;;;;6.95;2.33;;;36.90;53.10;;;;;;5072344;28;20544;-63
2022/06/15 09:15:46;;;;;;;7.78;2.25;;;37.10;52.70;;;;;;5073137;28;20063;-65
2022/06/15 09:18:22;;;;;;;8.95;2.30;;;37.20;52.30;;;;;;5073370;28;20048;-63
2022/06/15 09:21:11;;;;;;;4.68;2.15;;;37.40;51.30;;;;;;5073896;28;20031;-64
2022/06/15 09:23:49;;;;;;;7.40;2.40;;;37.40;51.40;;;;;;5063370;28;20131;-64
2022/06/15 09:26:18;;;;;;;6.10;2.30;;;37.50;50.60;;;;;;5073683;28;20030;-64
2022/06/15 09:28:55;;;;;;;7.05;2.22;;;37.70;50.30;;;;;;5074419;28;20484;-65
2022/06/15 09:31:25;;;;;;;5.93;2.90;;;37.50;49.60;;;;;;5074365;28;20072;-64
2022/06/15 09:33:59;;;;;;;5.35;2.35;;;36.80;49.90;;;;;;5074242;28;20496;-65
2022/06/15 09:36:31;;;;;;;6.93;2.55;;;36.30;50.40;;;;;;5074519;28;20020;-64
2022/06/15 09:38:57;;;;;;;6.65;2.15;;;36.30;50.80;;;;;;5074254;28;20032;-65
2022/06/15 09:41:39;;;;;;;8.60;2.20;;;36.60;50.70;;;;;;5060564;28;20056;-63
2022/06/15 09:44:24;;;;;;;5.10;2.00;;;36.40;49.90;;;;;;5054020;28;20498;-64
2022/06/15 09:46:55;;;;;;;6.80;2.10;;;36.30;49.80;;;;;;5053938;28;20402;-63
2022/06/15 09:49:52;;;;;;;5.13;2.00;;;36.50;49.70;;;;;;5053703;28;20082;-65
2022/06/15 09:52:21;;;;;;;5.22;1.95;;;36.90;49.40;;;;;;5053414;28;20463;-63
2022/06/15 09:54:46;;;;;;;9.23;2.00;;;37.20;49.00;;;;;;5048195;28;20062;-64
2022/06/15 09:57:12;;;;;;;5.03;1.92;;;37.20;49.40;;;;;;5052810;28;20033;-64
2022/06/15 09:59:39;;;;;;;5.53;1.88;;;37.30;49.20;;;;;;5053801;28;20036;-63
2022/06/15 10:02:15;;;;;;;5.50;2.40;;;37.20;49.20;;;;;;5053793;28;20086;-66
2022/06/15 10:04:43;;;;;;;7.40;2.13;;;37.10;49.30;;;;;;5053371;28;20020;-67
2022/06/15 10:07:26;;;;;;;6.47;2.15;;;37.10;48.90;;;;;;5053564;28;20356;-66
2022/06/15 10:09:56;;;;;;;8.65;2.20;;;36.90;48.70;;;;;;5053365;28;20024;-64
2022/06/15 10:15:19;;;;;;;8.45;2.60;;;37.20;48.50;;;;;;5053739;28;20079;-64
2022/06/15 10:17:49;;;;;;;7.32;2.42;;;37.30;48.50;;;;;;5053380;28;20013;-62
2022/06/15 10:20:26;;;;;;;6.13;1.90;;;37.70;48.40;;;;;;5053036;28;20086;-64
2022/06/15 10:22:54;;;;;;;4.65;2.40;;;38.10;48.20;;;;;;5053228;28;20017;-63
2022/06/15 10:25:21;;;;;;;5.10;1.98;;;38.30;47.60;;;;;;5053285;28;20024;-63
2022/06/15 10:27:47;;;;;;;5.13;2.03;;;38.40;48.00;;;;;;5053181;28;20378;-66
2022/06/15 10:30:15;;;;;;;3.05;1.90;;;38.30;47.90;;;;;;5052773;28;20043;-63
2022/06/15 10:33:19;;;;;;;6.88;2.00;;;38.20;47.60;;;;;;5052722;28;20025;-64
2022/06/15 10:35:58;;;;;;;7.82;1.85;;;37.90;47.50;;;;;;5052960;28;20047;-65
2022/06/15 10:38:27;;;;;;;9.93;2.50;;;38.10;47.30;;;;;;5051478;28;20132;-64
2022/06/15 10:40:55;;;;;;;5.97;2.20;;;38.30;47.20;;;;;;5053054;28;20033;-66
2022/06/15 10:43:30;;;;;;;6.07;2.20;;;38.50;46.80;;;;;;5052955;28;20021;-66
2022/06/15 10:45:58;;;;;;;8.70;2.25;;;38.50;46.80;;;;;;5053086;28;20024;-64
2022/06/15 10:48:40;;;;;;;6.80;2.20;;;38.40;46.90;;;;;;5052949;28;20418;-64
2022/06/15 10:51:16;;;;;;;5.90;2.17;;;38.40;46.60;;;;;;5052812;28;20059;-65
2022/06/15 10:53:49;;;;;;;6.32;2.08;;;38.50;46.40;;;;;;5052890;28;20029;-64
2022/06/15 11:02:28;;;;;;;6.20;2.15;;;38.60;46.00;;;;;;5047554;28;20059;-65
2022/06/15 11:05:09;;;;;;;7.47;2.25;;;38.70;46.20;;;;;;5052466;28;20366;-65
2022/06/15 11:07:44;;;;;;;3.63;2.10;;;38.70;45.70;;;;;;5052726;28;20060;-64
2022/06/15 11:10:21;;;;;;;5.63;1.98;;;38.20;45.70;;;;;;5052458;28;20021;-64
2022/06/15 11:12:51;;;;;;;4.22;1.67;;;38.10;45.90;;;;;;5051008;28;20021;-66
2022/06/15 11:15:17;;;;;;;6.00;1.93;;;38.20;45.40;;;;;;5050803;28;20366;-65
2022/06/15 11:18:01;;;;;;;3.65;1.80;;;38.10;45.30;;;;;;5051750;28;20029;-64
2022/06/15 11:20:48;;;;;;;5.18;1.92;;;38.10;45.90;;;;;;5051839;28;20514;-64
2022/06/15 11:23:42;;;;;;;3.33;1.55;;;38.30;45.20;;;;;;5052331;28;20025;-64
2022/06/15 11:26:54;;;;;;;5.20;1.80;;;38.50;45.60;;;;;;5052239;28;20017;-64
2022/06/15 11:29:37;;;;;;;3.50;1.75;;;38.20;46.10;;;;;;5052211;28;20056;-63
2022/06/15 11:32:10;;;;;;;7.05;2.00;;;37.80;45.50;;;;;;5051865;28;20052;-64
2022/06/15 11:34:42;;;;;;;7.13;2.03;;;37.90;44.90;;;;;;5051740;28;20037;-64
2022/06/15 11:37:18;;;;;;;5.78;1.73;;;38.10;45.30;;;;;;5051501;28;20369;-65
2022/06/15 11:39:52;;;;;;;6.18;1.90;;;38.00;44.60;;;;;;5051605;28;20433;-63
2022/06/15 11:42:18;;;;;;;4.28;1.77;;;37.70;45.20;;;;;;5052350;28;20032;-63
2022/06/15 11:44:44;;;;;;;4.00;2.05;;;37.40;45.30;;;;;;5052393;28;20108;-64
2022/06/15 11:47:34;;;;;;;5.13;1.70;;;37.00;45.90;;;;;;5055603;28;20032;-65
2022/06/15 11:50:00;;;;;;;4.65;1.77;;;37.40;45.80;;;;;;5056440;28;20032;-63
2022/06/15 11:52:58;;;;;;;5.70;1.90;;;37.50;45.10;;;;;;5056392;28;20017;-64
2022/06/15 11:55:44;;;;;;;7.38;2.03;;;37.40;45.00;;;;;;5056218;28;20021;-66
2022/06/15 11:58:35;;;;;;;5.70;2.17;;;37.30;44.70;;;;;;5056253;28;20032;-64
2022/06/15 12:01:07;;;;;;;;;;;37.40;45.20;;;;;;5057043;28;20021;-63
2022/06/15 12:03:48;;;;;;;9.88;2.13;;;37.40;45.30;;;;;;5056336;28;19901;-65
2022/06/15 12:06:45;;;;;;;5.50;2.20;;;37.50;45.30;;;;;;5054598;28;20032;-66
2022/06/15 12:09:37;;;;;;;3.55;1.80;;;37.30;44.90;;;;;;5056161;28;20021;-66
2022/06/15 12:12:39;;;;;;;4.32;2.05;;;37.40;44.40;;;;;;5055926;28;20362;-64
2022/06/15 12:15:05;;;;;;;4.45;2.10;;;37.70;44.40;;;;;;5055729;28;20021;-67
2022/06/15 12:17:49;;;;;;;5.90;2.00;;;38.10;44.70;;;;;;5055932;28;20478;-62
2022/06/15 12:20:41;;;;;;;5.07;2.08;;;38.20;44.50;;;;;;5055729;28;20110;-66
2022/06/15 12:23:41;;;;;;;9.05;2.30;;;38.20;44.60;;;;;;5055660;28;20025;-65
2022/06/15 12:26:26;;;;;;;7.18;1.73;;;38.30;44.60;;;;;;5055701;28;20450;-64
2022/06/15 12:29:26;;;;;;;4.95;2.00;;;38.40;44.50;;;;;;5055453;28;20017;-65
2022/06/15 12:34:52;;;;;;;4.32;2.35;;;37.50;44.50;;;;;;5055125;28;20035;-65
2022/06/15 12:37:53;;;;;;;5.00;1.73;;;36.90;44.90;;;;;;5055354;28;20106;-64
2022/06/15 12:40:34;;;;;;;5.82;2.35;;;36.50;45.40;;;;;;5055429;28;20358;-64
2022/06/15 12:43:04;;;;;;;;;;;35.70;45.90;;;;;;5056403;28;20086;-66
2022/06/15 12:45:33;;;;;;;5.13;2.38;;;34.80;46.90;;;;;;5055156;28;20377;-67
2022/06/15 12:48:02;;;;;;;7.20;2.33;;;34.20;47.40;;;;;;5055226;28;20036;-62
2022/06/15 12:50:38;;;;;;;10.25;2.55;;;33.70;47.90;;;;;;5054806;28;20075;-63
2022/06/15 12:53:08;;;;;;;7.32;2.70;;;33.30;48.50;;;;;;5055159;28;20092;-63
2022/06/15 12:56:01;;;;;;;5.75;2.50;;;33.00;48.50;;;;;;5054829;28;20083;-64
2022/06/15 12:58:36;;;;;;;4.13;2.33;;;32.80;48.60;;;;;;5054911;28;20096;-63
2022/06/15 13:01:19;;;;;;;5.45;2.67;;;32.30;48.50;;;;;;5053665;28;20523;-63
2022/06/15 13:03:56;;;;;;;4.47;2.17;;;32.00;50.50;;;;;;5055019;28;20037;-63
2022/06/15 13:06:24;;;;;;;9.85;2.60;;;31.70;50.30;;;;;;5054669;28;20139;-64
2022/06/15 13:09:20;;;;;;;4.55;2.58;;;31.40;50.40;;;;;;5054711;28;20447;-63
2022/06/15 13:12:09;;;;;;;5.22;2.45;;;30.80;50.90;;;;;;5054218;28;20017;-65
2022/06/15 13:14:43;;;;;;;5.20;2.15;;;30.30;51.60;;;;;;5054221;28;20029;-63
2022/06/15 13:17:17;;;;;;;5.82;2.17;;;29.90;52.50;;;;;;5053938;28;20021;-63
2022/06/15 13:19:47;;;;;;;7.22;2.40;;;29.50;53.50;;;;;;5049984;28;20021;-66